Historyczne dane pomiarowe

Dodano dane terminowe – wersja testowa.

Dane z okresu 1951-2019

Wersja bazy: 1.34 [2019-03-16, lista zmian], aktualizacja planowana na 2019-04-15

Dane meteo z obszaru Polski uzyskane na podstawie danych udostępnionych przez Instytut Meteorologii i Gospodarki Wodnej – Państwowy Instytut Badawczy.

 

Wybierz Datę:    

       

TemperaturaWilgotnośćWiatrCiśnienieOpadyŚniegCzas trwania zjawisk
 Stacja t tx tn tng RH VA  wxwx mslp ppp RRR   cm mm wxwxwxwxwxwxwx
1961-08-14 14.5 18.9 8.2- 77.3- 1.7 1.7---- 0.0------------
1961-08-13 14.2 17.0 12.9- 79.3- 4.7 3.7---- 0.0------------
1961-08-12 17.0 21.2 15.2- 89.8- 7.7 1.0---- 8.4------------
1961-08-11 19.0 22.5 16.8- 92.3- 8.0 2.3---- 3.5------------
1961-08-10 21.5 26.5 15.5- 76.3- 3.3 2.7---- 35.9------------
1961-08-09 20.9 27.2 15.9- 74.5- 4.0 2.3---- 0.0------------
1961-08-08 18.1 22.8 10.8- 71.3- 3.0 2.3---- 0.0------------
1961-08-07 19.3 22.5 17.6- 93.0- 7.0 2.3---- 1.6------------
1961-08-06 22.5 30.2 14.6- 78.0- 2.7 3.3---- 0.4------------
1961-08-05 17.8 22.8 14.0- 80.8- 4.3 4.0---- 0.0------------
1961-08-04 15.9 19.1 8.4- 73.0- 5.3 5.0---- 0.0------------
1961-08-03 14.9 20.4 12.3- 84.0- 4.7 3.0---- 7.7------------
1961-08-02 19.5 25.0 10.1- 68.5- 2.3 4.0---- 0.3------------
1961-08-01 12.8 14.9 11.4- 95.3- 6.3 4.3---- 1.3------------
1961-07-31 14.2 16.2 11.9- 90.5- 7.7 4.0---- 7.6------------
1961-07-30 13.2 14.8 10.4- 93.0- 7.7 3.7---- 9.7------------
1961-07-29 14.5 19.9 12.5- 84.0- 5.7 2.0---- 0.5------------
1961-07-28 16.0 19.1 14.3- 86.0- 8.0 3.7---- 17.7------------
1961-07-27 19.4 24.9 14.8- 77.0- 7.0 4.0---- 0.0------------
1961-07-26 16.5 21.2 11.5- 78.5- 8.0 5.0---- 0.0------------
1961-07-25 14.5 17.4 9.7- 79.5- 7.7 4.3---- 0.5------------
1961-07-24 14.0 18.5 10.1- 82.8- 5.3 4.0---- 0.0------------
1961-07-23 14.6 16.9 12.1- 85.0- 6.3 3.0---- 0.0------------
1961-07-22 15.5 20.2 13.3- 86.0- 6.7 3.3---- 2.2------------
1961-07-21 15.3 18.8 10.5- 88.0- 7.0 4.0---- 10.5------------
1961-07-20 15.8 21.5 8.2- 81.3- 3.3 1.0---- 0.0------------
1961-07-19 13.9 20.0 10.5- 85.3- 3.3 3.0---- 0.3------------
1961-07-18 13.8 18.3 11.0- 90.5- 6.0 3.0---- 12.5------------
1961-07-17 15.5 22.0 8.4- 79.3- 4.7 2.3---- 0.7------------
1961-07-16 13.4 15.9 11.3- 95.8- 5.3 2.3---- 24.4------------
1961-07-15 16.2 21.5 11.3- 82.3- 4.0 2.3---- 0.0------------
1961-07-14 15.2 21.7 13.6- 75.5- 6.0 5.0---- 0.0------------
1961-07-13 22.6 29.1 14.6- 65.8- 4.3 9.7---- 4.7------------
1961-07-12 19.0 25.0 12.5- 81.5- 2.7 1.7---- 0.0------------
1961-07-11 15.9 21.8 8.9- 66.8- 4.0 5.3---- 10.8------------
1961-07-10 14.4 19.8 9.4- 69.8- 5.0 6.0---- 0.0------------
1961-07-09 15.7 23.3 9.9- 71.3- 4.0 5.0---- 0.0------------
1961-07-08 15.9 21.8 9.4- 61.8- 3.7 1.7---- 0.0------------
1961-07-07 13.6 17.6 8.9- 68.5- 5.0 4.3---- 1.8------------
1961-07-06 13.2 17.4 7.5- 76.0- 4.7 4.7---- 0.1------------
1961-07-05 14.1 18.5 11.8- 61.8- 4.7 6.0---- 0.0------------
1961-07-04 18.3 24.7 15.5- 71.5- 6.7 3.3---- 0.0------------
1961-07-03 23.8 31.6 10.2- 54.3- 0.3 3.0---- 0.0------------
1961-07-02 21.3 29.2 9.3- 61.5- 0.0 2.0---- 0.0------------
1961-07-01 19.1 26.6 9.0- 66.0- 0.0 1.7---- 0.0------------
1961-06-30 19.1 25.1 9.1- 68.3- 0.0 4.3---- 0.0------------
1961-06-29 14.6 18.0 10.1- 80.3- 3.3 4.3---- 0.0------------
1961-06-28 14.2 21.1 11.6- 76.8- 4.7 4.7---- 2.2------------
1961-06-27 22.8 31.7 15.1- 78.3- 3.3 2.7---- 2.5------------
1961-06-26 23.6 27.5 14.3- 53.5- 0.0 1.3---- 0.0------------
1961-06-25 21.3 27.2 15.0- 67.5- 1.0 3.3---- 0.0------------
1961-06-24 17.6 22.5 12.6- 65.8- 2.3 5.7---- 0.0------------
1961-06-23 17.0 23.3 14.4- 78.3- 4.0 2.3---- 0.2------------
1961-06-22 15.5 21.1 8.1- 65.3- 2.0 2.3---- 18.2------------
1961-06-21 15.4 23.0 4.4- 70.0- 2.0 3.0---- 0.8------------
1961-06-20 14.3 19.6 8.8- 66.0- 1.0 4.7---- 0.0------------
1961-06-19 15.1 22.3 11.1- 77.8- 3.0 4.0---- 0.0------------
1961-06-18 20.5 26.5 14.6- 62.8- 4.0 4.3---- 0.3------------
1961-06-17 17.6 23.6 9.9- 69.3- 4.0 4.7---- 0.0------------
1961-06-16 13.0 16.7 11.3- 86.8- 7.3 5.3---- 0.0------------
540.2 ms

 

Źródłem pochodzenia danych jest Instytut Meteorologii i Gospodarki Wodnej – Państwowy Instytut Badawczy. Dane Instytutu Meteorologii i Gospodarki Wodnej – Państwowego Instytutu Badawczego zostały przetworzone.

Dane źródłowe można odnaleźć na stronie https://dane.imgw.pl